sensor_id;sensor_type;location;lat;lon;timestamp;pressure;altitude;pressure_sealevel;temperature;humidity
65666;BME280;52365;47.464;18.976;2023-05-24T00:00:04;99531.91;;;19.38;67.87
65666;BME280;52365;47.464;18.976;2023-05-24T00:00:26;99527.75;;;19.51;67.60
65666;BME280;52365;47.464;18.976;2023-05-24T00:00:48;99527.94;;;19.53;67.33
65666;BME280;52365;47.464;18.976;2023-05-24T00:01:12;99524.34;;;19.64;66.88
65666;BME280;52365;47.464;18.976;2023-05-24T00:01:34;99525.38;;;19.60;66.64
65666;BME280;52365;47.464;18.976;2023-05-24T00:01:57;99526.78;;;19.67;66.49
65666;BME280;52365;47.464;18.976;2023-05-24T00:02:18;99522.25;;;19.70;66.31
65666;BME280;52365;47.464;18.976;2023-05-24T00:02:39;99523.16;;;19.59;66.40
65666;BME280;52365;47.464;18.976;2023-05-24T00:03:03;99523.66;;;19.57;66.38
65666;BME280;52365;47.464;18.976;2023-05-24T00:03:25;99515.69;;;19.59;66.37
65666;BME280;52365;47.464;18.976;2023-05-24T00:03:46;99522.72;;;19.55;66.59
65666;BME280;52365;47.464;18.976;2023-05-24T00:04:07;99521.97;;;19.54;66.90
65666;BME280;52365;47.464;18.976;2023-05-24T00:04:28;99522.66;;;19.60;66.84
65666;BME280;52365;47.464;18.976;2023-05-24T00:04:49;99525.22;;;19.53;67.35
65666;BME280;52365;47.464;18.976;2023-05-24T00:05:08;99518.41;;;19.59;67.17
65666;BME280;52365;47.464;18.976;2023-05-24T00:05:25;99518.41;;;19.59;66.95
65666;BME280;52365;47.464;18.976;2023-05-24T00:05:46;99515.63;;;19.65;66.60
65666;BME280;52365;47.464;18.976;2023-05-24T00:06:07;99517.03;;;19.53;66.86
65666;BME280;52365;47.464;18.976;2023-05-24T00:06:28;99516.81;;;19.51;66.91
65666;BME280;52365;47.464;18.976;2023-05-24T00:06:50;99512.38;;;19.48;67.10
65666;BME280;52365;47.464;18.976;2023-05-24T00:07:11;99516.41;;;19.60;66.85
65666;BME280;52365;47.464;18.976;2023-05-24T00:07:33;99516.41;;;19.60;66.84
65666;BME280;52365;47.464;18.976;2023-05-24T00:07:54;99509.25;;;19.57;66.91
65666;BME280;52365;47.464;18.976;2023-05-24T00:08:15;99515.41;;;19.63;66.79
65666;BME280;52365;47.464;18.976;2023-05-24T00:08:36;99517.09;;;19.66;66.62
65666;BME280;52365;47.464;18.976;2023-05-24T00:08:57;99510.38;;;19.67;66.70
65666;BME280;52365;47.464;18.976;2023-05-24T00:09:18;99507.66;;;19.67;66.73
65666;BME280;52365;47.464;18.976;2023-05-24T00:09:39;99512.78;;;19.71;66.68
65666;BME280;52365;47.464;18.976;2023-05-24T00:10:00;99515.53;;;19.71;66.47
65666;BME280;52365;47.464;18.976;2023-05-24T00:10:22;99507.31;;;19.71;66.54
65666;BME280;52365;47.464;18.976;2023-05-24T00:10:43;99506.88;;;19.67;66.67
65666;BME280;52365;47.464;18.976;2023-05-24T00:11:04;99508.97;;;19.60;66.91
65666;BME280;52365;47.464;18.976;2023-05-24T00:11:26;99505.28;;;19.58;67.13
65666;BME280;52365;47.464;18.976;2023-05-24T00:11:47;99504.25;;;19.61;67.06
65666;BME280;52365;47.464;18.976;2023-05-24T00:12:08;99509.53;;;19.72;66.66
65666;BME280;52365;47.464;18.976;2023-05-24T00:12:29;99514.88;;;19.65;66.65
65666;BME280;52365;47.464;18.976;2023-05-24T00:12:50;99508.88;;;19.66;66.75
65666;BME280;52365;47.464;18.976;2023-05-24T00:13:11;99510.16;;;19.65;66.88
65666;BME280;52365;47.464;18.976;2023-05-24T00:13:32;99508.19;;;19.79;66.60
65666;BME280;52365;47.464;18.976;2023-05-24T00:13:53;99500.41;;;19.83;66.20
65666;BME280;52365;47.464;18.976;2023-05-24T00:14:15;99508.59;;;19.83;66.10
65666;BME280;52365;47.464;18.976;2023-05-24T00:14:36;99501.66;;;19.82;66.14
65666;BME280;52365;47.464;18.976;2023-05-24T00:14:57;99505.81;;;20.02;65.81
65666;BME280;52365;47.464;18.976;2023-05-24T00:15:18;99509.59;;;19.99;65.21
65666;BME280;52365;47.464;18.976;2023-05-24T00:15:39;99509.47;;;19.91;65.46
65666;BME280;52365;47.464;18.976;2023-05-24T00:16:00;99505.75;;;19.88;65.58
65666;BME280;52365;47.464;18.976;2023-05-24T00:16:21;99506.53;;;19.89;65.68
65666;BME280;52365;47.464;18.976;2023-05-24T00:16:42;99504.53;;;19.90;65.54
65666;BME280;52365;47.464;18.976;2023-05-24T00:16:58;99504.84;;;19.86;65.65
65666;BME280;52365;47.464;18.976;2023-05-24T00:17:19;99507.56;;;19.86;65.61
65666;BME280;52365;47.464;18.976;2023-05-24T00:17:41;99512.91;;;19.78;65.56
65666;BME280;52365;47.464;18.976;2023-05-24T00:18:02;99512.78;;;19.71;65.97
65666;BME280;52365;47.464;18.976;2023-05-24T00:18:23;99516.06;;;19.69;66.11
65666;BME280;52365;47.464;18.976;2023-05-24T00:18:46;99502.75;;;19.60;66.04
65666;BME280;52365;47.464;18.976;2023-05-24T00:19:07;99513.91;;;19.62;65.92
65666;BME280;52365;47.464;18.976;2023-05-24T00:19:30;99514.88;;;19.65;65.83
65666;BME280;52365;47.464;18.976;2023-05-24T00:19:51;99514.03;;;19.70;65.53
65666;BME280;52365;47.464;18.976;2023-05-24T00:20:13;99509.94;;;19.63;65.95
65666;BME280;52365;47.464;18.976;2023-05-24T00:20:34;99511.66;;;19.47;66.27
65666;BME280;52365;47.464;18.976;2023-05-24T00:20:55;99517.84;;;19.48;66.60
65666;BME280;52365;47.464;18.976;2023-05-24T00:21:18;99513.66;;;19.47;66.47
65666;BME280;52365;47.464;18.976;2023-05-24T00:21:39;99519.44;;;19.56;66.29
65666;BME280;52365;47.464;18.976;2023-05-24T00:21:58;99518.97;;;19.39;66.44
65666;BME280;52365;47.464;18.976;2023-05-24T00:22:19;99517.66;;;19.46;66.31
65666;BME280;52365;47.464;18.976;2023-05-24T00:22:41;99512.63;;;19.50;66.35
65666;BME280;52365;47.464;18.976;2023-05-24T00:23:02;99513.84;;;19.49;66.03
65666;BME280;52365;47.464;18.976;2023-05-24T00:23:26;99519.97;;;19.55;65.89
65666;BME280;52365;47.464;18.976;2023-05-24T00:23:47;99511.25;;;19.56;65.64
65666;BME280;52365;47.464;18.976;2023-05-24T00:24:08;99524.41;;;19.58;65.58
65666;BME280;52365;47.464;18.976;2023-05-24T00:24:30;99521.69;;;19.58;65.53
65666;BME280;52365;47.464;18.976;2023-05-24T00:24:51;99517.41;;;19.44;65.89
65666;BME280;52365;47.464;18.976;2023-05-24T00:25:12;99519.31;;;19.49;65.96
65666;BME280;52365;47.464;18.976;2023-05-24T00:25:33;99524.41;;;19.58;66.10
65666;BME280;52365;47.464;18.976;2023-05-24T00:25:50;99515.19;;;19.61;65.86
65666;BME280;52365;47.464;18.976;2023-05-24T00:26:07;99515.78;;;19.54;65.66
65666;BME280;52365;47.464;18.976;2023-05-24T00:26:28;99521.69;;;19.58;65.36
65666;BME280;52365;47.464;18.976;2023-05-24T00:26:49;99512.44;;;19.61;65.15
65666;BME280;52365;47.464;18.976;2023-05-24T00:27:10;99510.16;;;19.65;64.97
65666;BME280;52365;47.464;18.976;2023-05-24T00:27:31;99515.63;;;19.65;64.77
65666;BME280;52365;47.464;18.976;2023-05-24T00:27:48;99512.56;;;19.69;64.58
65666;BME280;52365;47.464;18.976;2023-05-24T00:28:09;99506.59;;;19.70;64.47
65666;BME280;52365;47.464;18.976;2023-05-24T00:28:30;99511.84;;;19.68;64.54
65666;BME280;52365;47.464;18.976;2023-05-24T00:28:51;99505.59;;;19.54;64.82
65666;BME280;52365;47.464;18.976;2023-05-24T00:29:12;99509.34;;;19.51;64.91
65666;BME280;52365;47.464;18.976;2023-05-24T00:29:33;99504.75;;;19.27;65.66
65666;BME280;52365;47.464;18.976;2023-05-24T00:29:54;99502.38;;;19.37;65.40
65666;BME280;52365;47.464;18.976;2023-05-24T00:30:15;99502.22;;;19.29;65.38
65666;BME280;52365;47.464;18.976;2023-05-24T00:30:36;99504.72;;;19.14;65.76
65666;BME280;52365;47.464;18.976;2023-05-24T00:30:57;99506.28;;;19.23;65.96
65666;BME280;52365;47.464;18.976;2023-05-24T00:31:18;99510.88;;;19.33;65.98
65666;BME280;52365;47.464;18.976;2023-05-24T00:31:39;99501.00;;;19.44;65.45
65666;BME280;52365;47.464;18.976;2023-05-24T00:32:00;99505.44;;;19.47;65.15
65666;BME280;52365;47.464;18.976;2023-05-24T00:32:21;99506.81;;;19.53;64.93
65666;BME280;52365;47.464;18.976;2023-05-24T00:32:42;99506.47;;;19.62;64.57
65666;BME280;52365;47.464;18.976;2023-05-24T00:33:03;99503.28;;;19.58;64.45
65666;BME280;52365;47.464;18.976;2023-05-24T00:33:25;99507.94;;;19.45;64.76
65666;BME280;52365;47.464;18.976;2023-05-24T00:33:47;99502.12;;;19.54;64.74
65666;BME280;52365;47.464;18.976;2023-05-24T00:34:08;99502.62;;;19.52;64.77
65666;BME280;52365;47.464;18.976;2023-05-24T00:34:29;99500.41;;;19.51;64.97
65666;BME280;52365;47.464;18.976;2023-05-24T00:34:50;99499.25;;;19.46;65.21
65666;BME280;52365;47.464;18.976;2023-05-24T00:35:11;99500.72;;;19.47;65.32
65666;BME280;52365;47.464;18.976;2023-05-24T00:35:32;99503.34;;;19.53;65.20
65666;BME280;52365;47.464;18.976;2023-05-24T00:35:49;99496.28;;;19.63;64.88
65666;BME280;52365;47.464;18.976;2023-05-24T00:36:15;99502.38;;;19.69;64.56
65666;BME280;52365;47.464;18.976;2023-05-24T00:36:36;99502.25;;;19.61;64.71
65666;BME280;52365;47.464;18.976;2023-05-24T00:36:57;99505.72;;;19.62;64.74
65666;BME280;52365;47.464;18.976;2023-05-24T00:37:18;99500.38;;;19.70;64.56
65666;BME280;52365;47.464;18.976;2023-05-24T00:37:39;99494.41;;;19.71;64.61
65666;BME280;52365;47.464;18.976;2023-05-24T00:38:04;99500.81;;;19.74;64.30
65666;BME280;52365;47.464;18.976;2023-05-24T00:38:25;99500.59;;;19.72;64.23
65666;BME280;52365;47.464;18.976;2023-05-24T00:38:46;99501.22;;;19.65;64.29
65666;BME280;52365;47.464;18.976;2023-05-24T00:39:07;99501.28;;;19.59;64.72
65666;BME280;52365;47.464;18.976;2023-05-24T00:39:28;99501.62;;;19.36;65.55
65666;BME280;52365;47.464;18.976;2023-05-24T00:39:49;99502.47;;;19.45;65.64
65666;BME280;52365;47.464;18.976;2023-05-24T00:40:11;99503.53;;;19.42;65.73
65666;BME280;52365;47.464;18.976;2023-05-24T00:40:27;99496.84;;;19.56;65.39
65666;BME280;52365;47.464;18.976;2023-05-24T00:40:48;99491.69;;;19.52;65.22
65666;BME280;52365;47.464;18.976;2023-05-24T00:41:04;99498.72;;;19.48;65.61
65666;BME280;52365;47.464;18.976;2023-05-24T00:41:25;99492.13;;;19.56;65.25
65666;BME280;52365;47.464;18.976;2023-05-24T00:41:47;99486.97;;;19.53;64.93
65666;BME280;52365;47.464;18.976;2023-05-24T00:42:08;99493.59;;;19.57;64.72
65666;BME280;52365;47.464;18.976;2023-05-24T00:42:29;99499.50;;;19.61;64.58
65666;BME280;52365;47.464;18.976;2023-05-24T00:42:50;99491.81;;;19.60;64.62
65666;BME280;52365;47.464;18.976;2023-05-24T00:43:11;99501.06;;;19.57;64.97
65666;BME280;52365;47.464;18.976;2023-05-24T00:43:32;99495.81;;;19.59;64.81
65666;BME280;52365;47.464;18.976;2023-05-24T00:43:53;99497.00;;;19.64;64.62
65666;BME280;52365;47.464;18.976;2023-05-24T00:44:14;99500.25;;;19.62;64.71
65666;BME280;52365;47.464;18.976;2023-05-24T00:44:35;99499.81;;;19.58;64.86
65666;BME280;52365;47.464;18.976;2023-05-24T00:44:56;99495.81;;;19.59;64.78
65666;BME280;52365;47.464;18.976;2023-05-24T00:45:17;99506.75;;;19.59;64.61
65666;BME280;52365;47.464;18.976;2023-05-24T00:45:38;99504.19;;;19.48;65.03
65666;BME280;52365;47.464;18.976;2023-05-24T00:46:27;99508.53;;;19.56;64.91
65666;BME280;52365;47.464;18.976;2023-05-24T00:46:48;99501.28;;;19.59;64.75
65666;BME280;52365;47.464;18.976;2023-05-24T00:47:10;99497.25;;;19.47;65.38
65666;BME280;52365;47.464;18.976;2023-05-24T00:47:32;99504.72;;;19.46;65.50
65666;BME280;52365;47.464;18.976;2023-05-24T00:47:53;99504.31;;;19.55;65.25
65666;BME280;52365;47.464;18.976;2023-05-24T00:48:14;99504.75;;;19.59;65.26
65666;BME280;52365;47.464;18.976;2023-05-24T00:48:35;99500.03;;;19.60;65.19
65666;BME280;52365;47.464;18.976;2023-05-24T00:48:57;99502.75;;;19.60;65.17
65666;BME280;52365;47.464;18.976;2023-05-24T00:49:18;99502.69;;;19.66;65.06
65666;BME280;52365;47.464;18.976;2023-05-24T00:49:39;99501.28;;;19.59;65.28
65666;BME280;52365;47.464;18.976;2023-05-24T00:50:01;99497.75;;;19.64;65.16
65666;BME280;52365;47.464;18.976;2023-05-24T00:50:22;99505.66;;;19.49;65.68
65666;BME280;52365;47.464;18.976;2023-05-24T00:50:44;99511.00;;;19.41;65.97
65666;BME280;52365;47.464;18.976;2023-05-24T00:51:05;99511.06;;;19.35;66.36
65666;BME280;52365;47.464;18.976;2023-05-24T00:51:26;99501.94;;;19.33;66.28
65666;BME280;52365;47.464;18.976;2023-05-24T00:51:49;99495.12;;;19.40;66.20
65666;BME280;52365;47.464;18.976;2023-05-24T00:52:11;99502.06;;;19.41;66.02
65666;BME280;52365;47.464;18.976;2023-05-24T00:52:32;99502.62;;;19.52;65.55
65666;BME280;52365;47.464;18.976;2023-05-24T00:52:53;99505.28;;;19.58;65.30
65666;BME280;52365;47.464;18.976;2023-05-24T00:53:14;99499.28;;;19.59;65.14
65666;BME280;52365;47.464;18.976;2023-05-24T00:53:36;99507.22;;;19.63;64.96
65666;BME280;52365;47.464;18.976;2023-05-24T00:53:57;99501.34;;;19.53;65.29
65666;BME280;52365;47.464;18.976;2023-05-24T00:54:13;99504.00;;;19.59;65.30
65666;BME280;52365;47.464;18.976;2023-05-24T00:54:34;99503.41;;;19.66;65.10
65666;BME280;52365;47.464;18.976;2023-05-24T00:54:50;99497.81;;;19.58;65.15
65666;BME280;52365;47.464;18.976;2023-05-24T00:55:12;99505.59;;;19.54;65.42
65666;BME280;52365;47.464;18.976;2023-05-24T00:55:33;99508.00;;;19.58;65.22
65666;BME280;52365;47.464;18.976;2023-05-24T00:55:56;99503.06;;;19.56;65.28
65666;BME280;52365;47.464;18.976;2023-05-24T00:56:18;99505.16;;;19.50;65.37
65666;BME280;52365;47.464;18.976;2023-05-24T00:56:40;99505.75;;;19.43;65.91
65666;BME280;52365;47.464;18.976;2023-05-24T00:57:02;99505.31;;;19.39;66.16
65666;BME280;52365;47.464;18.976;2023-05-24T00:57:23;99506.09;;;19.53;65.77
65666;BME280;52365;47.464;18.976;2023-05-24T00:57:44;99500.63;;;19.53;65.65
65666;BME280;52365;47.464;18.976;2023-05-24T00:58:06;99506.31;;;19.55;65.60
65666;BME280;52365;47.464;18.976;2023-05-24T00:58:27;99505.28;;;19.58;65.40
65666;BME280;52365;47.464;18.976;2023-05-24T00:58:51;99508.19;;;19.47;65.68
65666;BME280;52365;47.464;18.976;2023-05-24T00:59:14;99503.75;;;19.44;65.90
65666;BME280;52365;47.464;18.976;2023-05-24T00:59:35;99518.28;;;19.52;65.83
65666;BME280;52365;47.464;18.976;2023-05-24T00:59:57;99506.25;;;19.60;65.53
65666;BME280;52365;47.464;18.976;2023-05-24T01:00:14;99505.34;;;19.71;65.21
65666;BME280;52365;47.464;18.976;2023-05-24T01:00:31;99507.31;;;19.71;65.11
65666;BME280;52365;47.464;18.976;2023-05-24T01:00:53;99505.53;;;19.73;65.05
65666;BME280;52365;47.464;18.976;2023-05-24T01:01:17;99508.53;;;19.56;65.59
65666;BME280;52365;47.464;18.976;2023-05-24T01:01:38;99507.22;;;19.63;65.56
65666;BME280;52365;47.464;18.976;2023-05-24T01:02:01;99506.06;;;19.72;65.26
65666;BME280;52365;47.464;18.976;2023-05-24T01:02:22;99510.69;;;19.64;65.22
65666;BME280;52365;47.464;18.976;2023-05-24T01:02:45;99512.00;;;19.57;65.41
65666;BME280;52365;47.464;18.976;2023-05-24T01:03:07;99507.06;;;19.55;65.57
65666;BME280;52365;47.464;18.976;2023-05-24T01:03:29;99508.53;;;19.56;65.54
65666;BME280;52365;47.464;18.976;2023-05-24T01:03:52;99510.94;;;19.60;65.53
65666;BME280;52365;47.464;18.976;2023-05-24T01:04:13;99516.66;;;19.62;65.53
65666;BME280;52365;47.464;18.976;2023-05-24T01:04:37;99511.22;;;19.75;65.32
65666;BME280;52365;47.464;18.976;2023-05-24T01:04:58;99513.94;;;19.75;65.08
65666;BME280;52365;47.464;18.976;2023-05-24T01:05:20;99506.28;;;19.74;65.00
65666;BME280;52365;47.464;18.976;2023-05-24T01:05:41;99515.44;;;19.76;65.09
65666;BME280;52365;47.464;18.976;2023-05-24T01:06:05;99505.13;;;19.82;65.06
65666;BME280;52365;47.464;18.976;2023-05-24T01:06:27;99517.12;;;19.79;64.84
65666;BME280;52365;47.464;18.976;2023-05-24T01:08:14;99513.84;;;19.68;65.22
65666;BME280;52365;47.464;18.976;2023-05-24T01:09:06;99522.56;;;19.66;65.62
65666;BME280;52365;47.464;18.976;2023-05-24T01:11:06;99516.69;;;19.43;66.39
65666;BME280;52365;47.464;18.976;2023-05-24T01:12:14;99518.59;;;19.67;65.70
65666;BME280;52365;47.464;18.976;2023-05-24T01:14:17;99502.00;;;19.92;64.50
65666;BME280;52365;47.464;18.976;2023-05-24T01:14:54;99511.00;;;19.73;65.10
65666;BME280;52365;47.464;18.976;2023-05-24T01:15:23;99509.00;;;19.74;65.42
65666;BME280;52365;47.464;18.976;2023-05-24T01:15:53;99505.53;;;19.73;65.29
65666;BME280;52365;47.464;18.976;2023-05-24T01:16:23;99508.22;;;19.60;65.62
65666;BME280;52365;47.464;18.976;2023-05-24T01:17:22;99508.72;;;19.91;64.53
65666;BME280;52365;47.464;18.976;2023-05-24T01:18:05;99502.53;;;20.03;64.46
65666;BME280;52365;47.464;18.976;2023-05-24T01:18:43;99502.22;;;20.07;63.91
65666;BME280;52365;47.464;18.976;2023-05-24T01:20:17;99503.69;;;19.95;64.80
65666;BME280;52365;47.464;18.976;2023-05-24T01:20:41;99506.22;;;20.06;64.48
65666;BME280;52365;47.464;18.976;2023-05-24T01:21:15;99501.81;;;20.03;64.30
65666;BME280;52365;47.464;18.976;2023-05-24T01:23:14;99503.13;;;19.83;65.13
65666;BME280;52365;47.464;18.976;2023-05-24T01:23:43;99500.41;;;19.83;64.98
65666;BME280;52365;47.464;18.976;2023-05-24T01:26:02;99497.75;;;19.64;66.16
65666;BME280;52365;47.464;18.976;2023-05-24T01:27:14;99501.22;;;19.65;66.17
65666;BME280;52365;47.464;18.976;2023-05-24T01:27:16;99503.69;;;19.49;66.76
65666;BME280;52365;47.464;18.976;2023-05-24T01:27:37;99492.53;;;19.15;67.85
65666;BME280;52365;47.464;18.976;2023-05-24T01:27:55;99497.81;;;19.26;67.41
65666;BME280;52365;47.464;18.976;2023-05-24T01:28:18;99499.44;;;19.16;67.22
65666;BME280;52365;47.464;18.976;2023-05-24T01:28:41;99485.75;;;18.84;68.30
65666;BME280;52365;47.464;18.976;2023-05-24T01:29:04;99498.66;;;19.02;68.47
65666;BME280;52365;47.464;18.976;2023-05-24T01:29:28;99499.44;;;19.16;67.91
65666;BME280;52365;47.464;18.976;2023-05-24T01:29:51;99498.41;;;19.19;67.67
65666;BME280;52365;47.464;18.976;2023-05-24T01:30:15;99501.50;;;19.29;67.39
65666;BME280;52365;47.464;18.976;2023-05-24T01:30:38;99495.22;;;19.34;67.05
65666;BME280;52365;47.464;18.976;2023-05-24T01:31:00;99497.13;;;19.39;66.80
65666;BME280;52365;47.464;18.976;2023-05-24T01:31:22;99496.28;;;19.44;66.68
65666;BME280;52365;47.464;18.976;2023-05-24T01:31:43;99495.00;;;19.32;66.79
65666;BME280;52365;47.464;18.976;2023-05-24T01:32:05;99496.50;;;19.14;67.42
65666;BME280;52365;47.464;18.976;2023-05-24T01:32:27;99492.56;;;19.28;67.40
65666;BME280;52365;47.464;18.976;2023-05-24T01:32:48;99495.12;;;19.40;66.94
65666;BME280;52365;47.464;18.976;2023-05-24T01:33:09;99492.00;;;19.49;66.54
65666;BME280;52365;47.464;18.976;2023-05-24T01:33:31;99495.38;;;19.23;67.00
65666;BME280;52365;47.464;18.976;2023-05-24T01:33:52;99489.16;;;19.22;67.37
65666;BME280;52365;47.464;18.976;2023-05-24T01:34:13;99497.69;;;19.19;67.59
65666;BME280;52365;47.464;18.976;2023-05-24T01:34:34;99487.16;;;19.23;67.48
65666;BME280;52365;47.464;18.976;2023-05-24T01:34:55;99491.44;;;19.37;67.17
65666;BME280;52365;47.464;18.976;2023-05-24T01:35:16;99499.38;;;19.54;66.62
65666;BME280;52365;47.464;18.976;2023-05-24T01:35:37;99485.00;;;19.34;66.77
65666;BME280;52365;47.464;18.976;2023-05-24T01:35:57;99499.72;;;19.31;67.08
65666;BME280;52365;47.464;18.976;2023-05-24T01:36:18;99489.44;;;19.37;67.02
65666;BME280;52365;47.464;18.976;2023-05-24T01:36:39;99491.56;;;19.45;66.79
65666;BME280;52365;47.464;18.976;2023-05-24T01:37:00;99493.78;;;19.46;66.74
65666;BME280;52365;47.464;18.976;2023-05-24T01:37:21;99484.75;;;19.19;67.40
65666;BME280;52365;47.464;18.976;2023-05-24T01:37:42;99487.31;;;19.30;67.33
65666;BME280;52365;47.464;18.976;2023-05-24T01:38:03;99487.34;;;19.44;67.08
65666;BME280;52365;47.464;18.976;2023-05-24T01:38:24;99488.44;;;19.54;66.59
65666;BME280;52365;47.464;18.976;2023-05-24T01:38:45;99489.19;;;19.54;66.47
65666;BME280;52365;47.464;18.976;2023-05-24T01:39:06;99489.97;;;19.36;66.67
65666;BME280;52365;47.464;18.976;2023-05-24T01:39:28;99482.91;;;19.08;67.49
65666;BME280;52365;47.464;18.976;2023-05-24T01:39:50;99491.69;;;19.20;67.58
65666;BME280;52365;47.464;18.976;2023-05-24T01:40:11;99485.69;;;19.22;67.61
65666;BME280;52365;47.464;18.976;2023-05-24T01:40:33;99485.84;;;19.29;67.36
65666;BME280;52365;47.464;18.976;2023-05-24T01:41:04;99483.09;;;19.29;67.39
65666;BME280;52365;47.464;18.976;2023-05-24T01:41:51;99477.97;;;19.39;67.18
65666;BME280;52365;47.464;18.976;2023-05-24T01:42:25;99487.75;;;19.67;66.13
65666;BME280;52365;47.464;18.976;2023-05-24T01:43:28;99483.25;;;19.69;65.90
65666;BME280;52365;47.464;18.976;2023-05-24T01:44:06;99479.34;;;19.65;66.12
65666;BME280;52365;47.464;18.976;2023-05-24T01:44:39;99478.44;;;19.56;66.56
65666;BME280;52365;47.464;18.976;2023-05-24T01:45:50;99471.16;;;19.65;66.09
65666;BME280;52365;47.464;18.976;2023-05-24T01:46:40;99482.66;;;19.57;66.37
65666;BME280;52365;47.464;18.976;2023-05-24T01:48:13;99485.75;;;19.35;67.25
65666;BME280;52365;47.464;18.976;2023-05-24T01:48:52;99484.38;;;19.28;67.45
65666;BME280;52365;47.464;18.976;2023-05-24T01:49:30;99481.25;;;19.37;67.61
65666;BME280;52365;47.464;18.976;2023-05-24T01:49:53;99480.09;;;19.33;67.54
65666;BME280;52365;47.464;18.976;2023-05-24T01:50:22;99480.59;;;19.31;67.65
65666;BME280;52365;47.464;18.976;2023-05-24T01:50:48;99480.72;;;19.39;67.32
65666;BME280;52365;47.464;18.976;2023-05-24T01:51:16;99484.06;;;19.32;67.59
65666;BME280;52365;47.464;18.976;2023-05-24T01:51:48;99481.25;;;19.37;67.47
65666;BME280;52365;47.464;18.976;2023-05-24T01:52:15;99483.31;;;19.31;67.84
65666;BME280;52365;47.464;18.976;2023-05-24T01:52:36;99489.25;;;19.17;68.05
65666;BME280;52365;47.464;18.976;2023-05-24T01:53:03;99484.22;;;19.21;68.07
65666;BME280;52365;47.464;18.976;2023-05-24T01:53:32;99477.75;;;19.05;68.17
65666;BME280;52365;47.464;18.976;2023-05-24T01:53:49;99483.81;;;18.98;68.58
65666;BME280;52365;47.464;18.976;2023-05-24T01:54:12;99486.47;;;19.03;68.49
65666;BME280;52365;47.464;18.976;2023-05-24T01:54:37;99487.66;;;19.08;68.50
65666;BME280;52365;47.464;18.976;2023-05-24T01:54:59;99481.16;;;19.11;68.14
65666;BME280;52365;47.464;18.976;2023-05-24T01:55:21;99490.53;;;19.16;67.94
65666;BME280;52365;47.464;18.976;2023-05-24T01:55:43;99489.41;;;19.24;67.79
65666;BME280;52365;47.464;18.976;2023-05-24T01:56:06;99477.44;;;19.27;67.50
65666;BME280;52365;47.464;18.976;2023-05-24T01:56:29;99483.94;;;19.24;67.45
65666;BME280;52365;47.464;18.976;2023-05-24T01:56:48;99483.06;;;19.16;67.81
65666;BME280;52365;47.464;18.976;2023-05-24T01:57:11;99480.41;;;19.10;68.03
65666;BME280;52365;47.464;18.976;2023-05-24T01:57:33;99484.75;;;19.19;67.76
65666;BME280;52365;47.464;18.976;2023-05-24T01:57:49;99479.69;;;19.10;67.87
65666;BME280;52365;47.464;18.976;2023-05-24T01:58:06;99481.28;;;19.19;67.83
65666;BME280;52365;47.464;18.976;2023-05-24T01:58:29;99481.16;;;19.11;67.97
65666;BME280;52365;47.464;18.976;2023-05-24T01:58:52;99486.31;;;19.15;67.95
65666;BME280;52365;47.464;18.976;2023-05-24T01:59:14;99476.72;;;19.08;67.95
65666;BME280;52365;47.464;18.976;2023-05-24T01:59:32;99480.28;;;19.03;68.11
65666;BME280;52365;47.464;18.976;2023-05-24T01:59:54;99477.38;;;19.14;68.05
65666;BME280;52365;47.464;18.976;2023-05-24T02:00:17;99480.34;;;19.16;67.82
65666;BME280;52365;47.464;18.976;2023-05-24T02:00:39;99486.44;;;19.22;67.81
65666;BME280;52365;47.464;18.976;2023-05-24T02:01:01;99485.16;;;19.10;68.20
65666;BME280;52365;47.464;18.976;2023-05-24T02:01:22;99480.13;;;19.14;68.23
65666;BME280;52365;47.464;18.976;2023-05-24T02:01:44;99477.44;;;19.27;67.87
65666;BME280;52365;47.464;18.976;2023-05-24T02:02:06;99479.41;;;19.27;67.73
65666;BME280;52365;47.464;18.976;2023-05-24T02:02:27;99480.59;;;19.31;67.70
65666;BME280;52365;47.464;18.976;2023-05-24T02:02:48;99480.09;;;19.33;67.43
65666;BME280;52365;47.464;18.976;2023-05-24T02:03:05;99477.78;;;19.37;67.24
65666;BME280;52365;47.464;18.976;2023-05-24T02:03:26;99479.03;;;19.36;67.18
65666;BME280;52365;47.464;18.976;2023-05-24T02:03:48;99479.34;;;19.32;67.25
65666;BME280;52365;47.464;18.976;2023-05-24T02:04:10;99481.41;;;19.26;67.46
65666;BME280;52365;47.464;18.976;2023-05-24T02:04:31;99483.31;;;19.31;67.46
65666;BME280;52365;47.464;18.976;2023-05-24T02:04:52;99480.69;;;19.26;67.55
65666;BME280;52365;47.464;18.976;2023-05-24T02:05:14;99482.16;;;19.27;67.66
65666;BME280;52365;47.464;18.976;2023-05-24T02:05:35;99475.50;;;19.22;67.74
65666;BME280;52365;47.464;18.976;2023-05-24T02:05:56;99481.41;;;19.26;67.75
65666;BME280;52365;47.464;18.976;2023-05-24T02:06:17;99486.72;;;19.37;67.64
65666;BME280;52365;47.464;18.976;2023-05-24T02:06:37;99475.34;;;19.33;67.31
65666;BME280;52365;47.464;18.976;2023-05-24T02:06:59;99476.00;;;19.40;67.14
65666;BME280;52365;47.464;18.976;2023-05-24T02:07:20;99482.41;;;19.42;66.98
65666;BME280;52365;47.464;18.976;2023-05-24T02:07:41;99481.00;;;19.35;67.31
65666;BME280;52365;47.464;18.976;2023-05-24T02:08:02;99481.63;;;19.28;67.37
65666;BME280;52365;47.464;18.976;2023-05-24T02:08:23;99481.84;;;19.30;67.35
65666;BME280;52365;47.464;18.976;2023-05-24T02:08:39;99482.59;;;19.31;67.39
65666;BME280;52365;47.464;18.976;2023-05-24T02:09:00;99480.38;;;19.29;67.33
65666;BME280;52365;47.464;18.976;2023-05-24T02:09:21;99481.97;;;19.38;67.16
65666;BME280;52365;47.464;18.976;2023-05-24T02:09:42;99487.09;;;19.28;67.11
65666;BME280;52365;47.464;18.976;2023-05-24T02:10:03;99491.16;;;19.22;67.52
65666;BME280;52365;47.464;18.976;2023-05-24T02:10:24;99482.59;;;19.31;67.44
65666;BME280;52365;47.464;18.976;2023-05-24T02:10:45;99481.44;;;19.40;67.18